Time;durP1;ratioP1;P1;durP2;ratioP2;P2;SDS_P1;SDS_P2;PMS_P1;PMS_P2;Temp;Humidity;BMP_temperature;BMP_pressure;BME280_temperature;BME280_humidity;BME280_pressure;Samples;Min_cycle;Max_cycle;Signal;HPM_P1;HPM_P2
2021/07/09 00:02:13;;;;;;;22.20;20.10;;;19.00;99.10;;;;;;4996765;28;20061;-61
2021/07/09 00:04:39;;;;;;;22.05;19.90;;;19.00;99.20;;;;;;4997483;28;20037;-59
2021/07/09 00:07:05;;;;;;;21.65;19.55;;;19.00;99.20;;;;;;4996026;28;20051;-59
2021/07/09 00:09:30;;;;;;;22.85;20.77;;;19.00;99.30;;;;;;4994829;28;20026;-60
2021/07/09 00:11:56;;;;;;;21.95;19.77;;;18.90;99.30;;;;;;4995645;28;20666;-60
2021/07/09 00:14:28;;;;;;;23.35;21.17;;;19.00;99.20;;;;;;4996247;28;20125;-59
2021/07/09 00:16:54;;;;;;;21.42;19.30;;;19.00;99.20;;;;;;4995436;28;20030;-59
2021/07/09 00:19:20;;;;;;;20.90;18.90;;;19.00;99.30;;;;;;4996453;28;20033;-57
2021/07/09 00:21:45;;;;;;;20.95;18.85;;;19.10;99.10;;;;;;5015154;28;20038;-59
2021/07/09 00:24:12;;;;;;;20.45;18.55;;;19.10;98.90;;;;;;5014914;28;20375;-60
2021/07/09 00:26:39;;;;;;;20.35;18.42;;;19.10;99.10;;;;;;5000898;28;20041;-56
2021/07/09 00:29:05;;;;;;;18.50;16.80;;;19.00;99.10;;;;;;4995643;28;20053;-60
2021/07/09 00:31:31;;;;;;;19.50;17.70;;;19.00;99.20;;;;;;4995730;28;20478;-58
2021/07/09 00:34:07;;;;;;;18.15;16.45;;;19.10;99.10;;;;;;4995758;28;20040;-60
2021/07/09 00:36:34;;;;;;;18.02;16.35;;;19.00;99.20;;;;;;5009934;28;20042;-61
2021/07/09 00:39:00;;;;;;;18.23;16.40;;;19.00;99.00;;;;;;5015136;28;20064;-62
2021/07/09 00:41:27;;;;;;;17.17;15.65;;;19.00;99.00;;;;;;5015970;28;20493;-60
2021/07/09 00:43:52;;;;;;;15.05;13.45;;;19.00;99.10;;;;;;5016197;28;20038;-60
2021/07/09 00:46:32;;;;;;;15.93;14.35;;;19.00;99.00;;;;;;5014398;28;20060;-61
2021/07/09 00:48:58;;;;;;;15.45;14.13;;;19.10;98.80;;;;;;5014321;28;20165;-62
2021/07/09 00:51:23;;;;;;;14.80;13.40;;;19.10;98.90;;;;;;5014811;28;20501;-59
2021/07/09 00:53:49;;;;;;;14.80;13.40;;;19.00;98.90;;;;;;5014336;28;20026;-57
2021/07/09 00:56:14;;;;;;;13.85;12.65;;;19.10;98.90;;;;;;5014599;28;20042;-56
2021/07/09 00:58:40;;;;;;;14.07;11.38;;;19.10;98.80;;;;;;5014255;28;20125;-58
2021/07/09 01:01:06;;;;;;;13.30;12.02;;;19.10;98.40;;;;;;5014573;28;20056;-61
2021/07/09 01:03:32;;;;;;;13.02;11.82;;;19.00;98.70;;;;;;5013211;28;20034;-61
2021/07/09 01:05:57;;;;;;;15.63;14.05;;;19.00;98.80;;;;;;5014025;28;20057;-62
2021/07/09 01:08:23;;;;;;;13.77;12.60;;;18.90;98.80;;;;;;5012429;28;20509;-62
2021/07/09 01:10:48;;;;;;;15.00;13.60;;;19.00;98.90;;;;;;5014504;28;20034;-61
2021/07/09 01:13:15;;;;;;;14.77;13.27;;;19.00;98.80;;;;;;5014313;28;20068;-61
2021/07/09 01:15:40;;;;;;;14.95;13.55;;;19.00;98.70;;;;;;5014165;28;20034;-58
2021/07/09 01:18:06;;;;;;;15.52;14.07;;;19.00;98.90;;;;;;5012516;28;20092;-60
2021/07/09 01:20:32;;;;;;;14.93;13.43;;;19.00;98.90;;;;;;5014173;28;20109;-60
2021/07/09 01:22:59;;;;;;;15.63;14.13;;;19.10;98.90;;;;;;5012839;28;20040;-61
2021/07/09 01:25:26;;;;;;;14.60;13.13;;;19.10;98.70;;;;;;5010298;28;20172;-61
2021/07/09 01:28:00;;;;;;;15.38;13.88;;;19.10;98.70;;;;;;4994005;28;20542;-60
2021/07/09 01:30:27;;;;;;;13.88;12.57;;;18.90;99.00;;;;;;4993062;28;20502;-60
2021/07/09 01:32:53;;;;;;;15.73;14.32;;;19.00;98.80;;;;;;4994472;28;20049;-59
2021/07/09 01:35:21;;;;;;;15.07;13.57;;;19.00;98.90;;;;;;4999287;28;20386;-59
2021/07/09 01:37:56;;;;;;;16.65;15.15;;;19.00;98.90;;;;;;5013189;28;20408;-60
2021/07/09 01:40:22;;;;;;;17.08;15.50;;;18.90;98.90;;;;;;5013877;28;20486;-60
2021/07/09 01:42:48;;;;;;;17.63;15.82;;;18.90;99.00;;;;;;5014196;28;20105;-57
2021/07/09 01:45:13;;;;;;;18.65;16.95;;;18.80;99.20;;;;;;5011723;28;20033;-58
2021/07/09 01:47:39;;;;;;;17.75;15.68;;;18.70;99.20;;;;;;5012134;28;20117;-59
2021/07/09 01:50:06;;;;;;;18.75;17.00;;;18.70;99.40;;;;;;5012510;28;20042;-58
2021/07/09 01:52:31;;;;;;;19.42;17.40;;;18.50;99.60;;;;;;5013536;28;20053;-59
2021/07/09 01:54:59;;;;;;;19.48;17.48;;;18.60;99.40;;;;;;5013248;28;20025;-59
2021/07/09 01:57:26;;;;;;;22.08;19.88;;;18.60;99.30;;;;;;5012958;28;20088;-57
2021/07/09 01:59:51;;;;;;;22.08;20.08;;;18.60;99.30;;;;;;5012847;28;20044;-57
2021/07/09 02:02:17;;;;;;;21.80;19.90;;;18.40;99.80;;;;;;5013579;28;20034;-60
2021/07/09 02:04:50;;;;;;;22.27;20.00;;;18.40;99.80;;;;;;5013401;28;20050;-59
2021/07/09 02:07:17;;;;;;;21.38;19.42;;;18.50;99.70;;;;;;5012808;28;20038;-60
2021/07/09 02:09:44;;;;;;;20.67;18.75;;;18.50;99.60;;;;;;5013123;28;20057;-59
2021/07/09 02:12:11;;;;;;;22.55;20.20;;;18.50;99.70;;;;;;5011898;28;20026;-59
2021/07/09 02:14:37;;;;;;;19.65;17.88;;;18.40;99.60;;;;;;5012110;28;20448;-59
2021/07/09 02:17:14;;;;;;;19.33;17.50;;;18.40;99.60;;;;;;5012607;28;20040;-58
2021/07/09 02:19:41;;;;;;;19.45;17.55;;;18.50;99.40;;;;;;5013025;28;20022;-57
2021/07/09 02:22:09;;;;;;;20.67;18.88;;;18.70;99.20;;;;;;5013170;28;20046;-57
2021/07/09 02:24:35;;;;;;;18.45;16.67;;;18.50;99.30;;;;;;5011754;28;20038;-58
2021/07/09 02:27:03;;;;;;;17.13;15.52;;;18.60;98.90;;;;;;4995402;28;20030;-61
2021/07/09 02:29:30;;;;;;;17.70;15.90;;;18.60;98.90;;;;;;4993045;28;20030;-59
2021/07/09 02:31:56;;;;;;;15.77;14.27;;;18.60;98.90;;;;;;4993353;28;20038;-60
2021/07/09 02:34:22;;;;;;;15.00;13.73;;;18.60;98.70;;;;;;4993274;28;20035;-59
2021/07/09 02:36:47;;;;;;;15.27;13.77;;;18.70;98.60;;;;;;5010271;28;20038;-59
2021/07/09 02:39:13;;;;;;;15.38;13.85;;;18.70;98.50;;;;;;5012721;28;20042;-60
2021/07/09 02:41:39;;;;;;;16.73;14.00;;;18.70;98.80;;;;;;5012552;28;20392;-58
2021/07/09 02:44:05;;;;;;;16.55;14.70;;;18.70;98.70;;;;;;5012619;28;20042;-57
2021/07/09 02:46:30;;;;;;;15.25;13.70;;;18.70;98.40;;;;;;5012277;28;20121;-60
2021/07/09 02:48:56;;;;;;;15.73;14.32;;;18.70;98.50;;;;;;5012609;28;20128;-60
2021/07/09 02:51:22;;;;;;;14.65;13.27;;;18.80;98.30;;;;;;5012529;28;20034;-59
2021/07/09 02:53:47;;;;;;;16.08;14.68;;;18.70;98.50;;;;;;5012412;28;20109;-58
2021/07/09 02:56:13;;;;;;;16.42;14.80;;;18.70;98.60;;;;;;5011611;28;20038;-61
2021/07/09 02:58:39;;;;;;;19.90;15.60;;;18.70;98.50;;;;;;5011658;28;20042;-61
2021/07/09 03:01:04;;;;;;;17.42;15.75;;;18.70;98.80;;;;;;5012353;28;20043;-59
2021/07/09 03:03:30;;;;;;;18.15;16.33;;;18.70;98.90;;;;;;5012631;28;20053;-58
2021/07/09 03:05:55;;;;;;;16.75;15.05;;;18.70;98.60;;;;;;5012370;28;20188;-58
2021/07/09 03:08:21;;;;;;;18.67;16.92;;;18.60;98.90;;;;;;5012533;28;20061;-59
2021/07/09 03:10:47;;;;;;;20.73;18.70;;;18.60;98.70;;;;;;5013668;28;20041;-59
2021/07/09 03:13:13;;;;;;;22.48;20.33;;;18.60;98.70;;;;;;5012146;28;20041;-58
2021/07/09 03:15:39;;;;;;;21.80;19.80;;;18.50;98.70;;;;;;5010998;28;20038;-59
2021/07/09 03:18:04;;;;;;;23.17;20.98;;;18.40;98.90;;;;;;5012024;28;20034;-57
2021/07/09 03:20:30;;;;;;;23.42;20.98;;;18.40;99.10;;;;;;5012280;28;20462;-59
2021/07/09 03:22:56;;;;;;;23.17;20.98;;;18.40;99.10;;;;;;5011895;28;20042;-58
2021/07/09 03:25:21;;;;;;;25.00;22.50;;;18.30;99.20;;;;;;5008909;28;20074;-58
2021/07/09 03:27:47;;;;;;;22.45;20.10;;;18.30;99.20;;;;;;4992022;28;20486;-59
2021/07/09 03:30:13;;;;;;;23.48;21.15;;;18.30;99.10;;;;;;4996024;28;20134;-56
2021/07/09 03:32:39;;;;;;;26.10;23.50;;;18.20;99.20;;;;;;4996167;28;20409;-58
2021/07/09 03:35:06;;;;;;;26.00;23.45;;;18.20;99.40;;;;;;4998324;28;20029;-56
2021/07/09 03:37:33;;;;;;;24.13;21.73;;;18.10;99.30;;;;;;5015249;28;20085;-51
2021/07/09 03:39:58;;;;;;;25.73;23.33;;;18.10;99.50;;;;;;5014174;28;20034;-56
2021/07/09 03:42:24;;;;;;;25.00;22.67;;;18.00;99.70;;;;;;5015823;28;20038;-55
2021/07/09 03:44:49;;;;;;;25.65;23.35;;;18.00;99.70;;;;;;5015658;28;20113;-58
2021/07/09 03:47:15;;;;;;;23.98;21.48;;;17.90;99.90;;;;;;5015556;28;20045;-56
2021/07/09 03:49:41;;;;;;;24.60;22.02;;;18.00;99.80;;;;;;5015620;28;20025;-56
2021/07/09 03:52:06;;;;;;;22.85;20.65;;;18.10;99.50;;;;;;5015646;28;20092;-57
2021/07/09 03:54:33;;;;;;;23.05;20.92;;;18.10;99.50;;;;;;5015574;28;20026;-58
2021/07/09 03:56:59;;;;;;;22.80;20.45;;;18.20;99.40;;;;;;5013847;28;20045;-57
2021/07/09 03:59:24;;;;;;;22.33;20.23;;;18.10;99.40;;;;;;5015772;28;20038;-58
2021/07/09 04:01:50;;;;;;;22.77;20.67;;;18.10;99.60;;;;;;5015625;28;20037;-57
2021/07/09 04:04:15;;;;;;;23.08;20.85;;;18.30;99.20;;;;;;5015446;28;20042;-57
2021/07/09 04:06:41;;;;;;;23.90;21.42;;;18.10;99.20;;;;;;5015099;28;20041;-58
2021/07/09 04:09:06;;;;;;;24.58;21.30;;;18.10;99.40;;;;;;5015361;28;20505;-59
2021/07/09 04:11:32;;;;;;;23.60;21.30;;;18.10;99.50;;;;;;5012775;28;20105;-60
2021/07/09 04:13:57;;;;;;;22.70;20.38;;;18.10;99.30;;;;;;5015237;28;20092;-58
2021/07/09 04:16:23;;;;;;;23.98;21.15;;;18.00;99.70;;;;;;5015477;28;20034;-56
2021/07/09 04:18:49;;;;;;;22.88;20.77;;;18.00;99.90;;;;;;5015259;28;20026;-56
2021/07/09 04:21:14;;;;;;;23.38;20.33;;;17.90;99.80;;;;;;5015397;28;20034;-57
2021/07/09 04:23:40;;;;;;;24.50;22.13;;;18.00;99.80;;;;;;5015176;28;20042;-56
2021/07/09 04:26:06;;;;;;;26.98;21.45;;;17.90;99.70;;;;;;5013785;28;20481;-55
2021/07/09 04:28:31;;;;;;;24.45;21.83;;;17.80;99.90;;;;;;5015054;28;20065;-58
2021/07/09 04:30:57;;;;;;;23.15;20.67;;;17.90;99.70;;;;;;5015358;28;20026;-56
2021/07/09 04:33:23;;;;;;;24.77;22.15;;;18.00;99.60;;;;;;5015085;28;20026;-58
2021/07/09 04:35:50;;;;;;;23.33;21.02;;;17.90;99.80;;;;;;5015018;28;20610;-58
2021/07/09 04:38:16;;;;;;;24.48;21.85;;;17.90;99.60;;;;;;5015220;28;20068;-57
2021/07/09 04:40:42;;;;;;;22.25;19.88;;;17.90;99.70;;;;;;5015062;28;20040;-57
2021/07/09 04:43:08;;;;;;;25.48;20.98;;;17.90;99.60;;;;;;5015515;28;20397;-59
2021/07/09 04:45:33;;;;;;;23.45;21.13;;;17.90;99.60;;;;;;5014540;28;20030;-58
2021/07/09 04:47:59;;;;;;;23.30;21.10;;;18.10;99.50;;;;;;5014663;28;20489;-58
2021/07/09 04:50:25;;;;;;;23.00;20.65;;;18.10;99.20;;;;;;5015145;28;20041;-56
2021/07/09 04:52:51;;;;;;;24.48;21.92;;;18.00;99.30;;;;;;5014571;28;20033;-58
2021/07/09 04:55:16;;;;;;;23.60;20.92;;;18.00;99.30;;;;;;5014628;28;20485;-58
2021/07/09 04:57:42;;;;;;;23.27;20.90;;;18.00;99.50;;;;;;5014793;28;20490;-59
2021/07/09 05:00:08;;;;;;;24.65;22.25;;;17.90;99.50;;;;;;5015050;28;20096;-60
2021/07/09 05:02:40;;;;;;;22.25;20.05;;;17.90;99.50;;;;;;5015980;28;20092;-58
2021/07/09 05:05:12;;;;;;;23.75;20.08;;;17.90;99.60;;;;;;5012902;28;20045;-59
2021/07/09 05:07:37;;;;;;;25.48;20.88;;;18.00;99.50;;;;;;5015410;28;20062;-57
2021/07/09 05:10:04;;;;;;;23.63;21.17;;;17.90;99.60;;;;;;5014682;28;20072;-58
2021/07/09 05:12:30;;;;;;;24.33;21.30;;;17.90;99.60;;;;;;5014403;28;20084;-59
2021/07/09 05:14:56;;;;;;;23.02;20.55;;;18.00;99.50;;;;;;5014824;28;20037;-58
2021/07/09 05:17:22;;;;;;;24.23;21.38;;;18.00;99.50;;;;;;5013989;28;20452;-59
2021/07/09 05:19:47;;;;;;;25.02;22.48;;;17.90;99.70;;;;;;5013877;28;20034;-59
2021/07/09 05:22:13;;;;;;;25.08;22.50;;;18.00;99.50;;;;;;5014653;28;20091;-55
2021/07/09 05:24:39;;;;;;;24.50;21.73;;;18.00;99.40;;;;;;5014440;28;20365;-59
2021/07/09 05:27:07;;;;;;;24.27;21.77;;;17.90;99.80;;;;;;5013872;28;20041;-60
2021/07/09 05:29:33;;;;;;;23.83;21.35;;;18.00;99.70;;;;;;5014568;28;20045;-60
2021/07/09 05:31:59;;;;;;;23.88;21.45;;;17.90;99.70;;;;;;5014358;28;20034;-59
2021/07/09 05:34:24;;;;;;;25.10;21.33;;;18.00;99.60;;;;;;5013807;28;20127;-58
2021/07/09 05:36:50;;;;;;;28.02;21.05;;;18.00;99.70;;;;;;5014076;28;20084;-60
2021/07/09 05:39:16;;;;;;;24.70;20.77;;;18.10;99.60;;;;;;5014342;28;20048;-59
2021/07/09 05:41:43;;;;;;;25.75;22.35;;;18.10;99.50;;;;;;5013868;28;20025;-60
2021/07/09 05:44:11;;;;;;;22.35;19.95;;;18.10;99.60;;;;;;5014568;28;20037;-60
2021/07/09 05:46:37;;;;;;;23.50;21.20;;;18.10;99.70;;;;;;5025090;28;20049;-62
2021/07/09 05:49:03;;;;;;;24.55;21.05;;;18.10;99.70;;;;;;5033623;28;20029;-62
2021/07/09 05:51:29;;;;;;;25.85;21.60;;;18.00;99.60;;;;;;5033544;28;20131;-62
2021/07/09 05:53:54;;;;;;;24.45;21.85;;;18.00;99.80;;;;;;5033348;28;20113;-61
2021/07/09 05:56:20;;;;;;;24.35;20.10;;;18.00;99.70;;;;;;5033409;28;20033;-60
2021/07/09 05:58:46;;;;;;;22.33;19.80;;;18.00;99.90;;;;;;5032355;28;20071;-60
2021/07/09 06:01:11;;;;;;;22.90;20.55;;;18.00;99.70;;;;;;5032306;28;20048;-60
2021/07/09 06:03:37;;;;;;;23.98;21.20;;;18.00;99.70;;;;;;5032778;28;20083;-58
2021/07/09 06:06:02;;;;;;;22.95;19.92;;;17.80;99.90;;;;;;5032735;28;20038;-56
2021/07/09 06:08:29;;;;;;;26.15;20.48;;;17.80;99.90;;;;;;5032600;28;20038;-58
2021/07/09 06:10:56;;;;;;;23.05;20.73;;;17.80;99.90;;;;;;5033312;28;20033;-59
2021/07/09 06:13:22;;;;;;;23.73;20.23;;;17.80;99.90;;;;;;5019616;28;20381;-57
2021/07/09 06:15:47;;;;;;;22.50;20.35;;;17.90;99.90;;;;;;5012947;28;20026;-61
2021/07/09 06:18:13;;;;;;;24.27;21.35;;;17.90;99.90;;;;;;5012982;28;20467;-56
2021/07/09 06:20:38;;;;;;;24.83;21.48;;;17.90;99.90;;;;;;5013198;28;20121;-58
2021/07/09 06:23:04;;;;;;;22.75;20.45;;;18.00;99.90;;;;;;5013123;28;20076;-59
2021/07/09 06:25:29;;;;;;;25.15;20.30;;;18.00;99.90;;;;;;5012696;28;20490;-59
2021/07/09 06:27:55;;;;;;;23.48;20.98;;;17.80;99.90;;;;;;5012731;28;20490;-58
2021/07/09 06:30:21;;;;;;;24.48;22.00;;;17.90;99.90;;;;;;5012235;28;20034;-60
2021/07/09 06:32:46;;;;;;;27.45;21.02;;;17.90;99.90;;;;;;5011396;28;20092;-60
2021/07/09 06:35:12;;;;;;;32.03;22.90;;;17.90;99.90;;;;;;5012948;28;20089;-59
2021/07/09 06:37:38;;;;;;;26.58;23.77;;;17.80;99.90;;;;;;5010654;28;20527;-61
2021/07/09 06:40:06;;;;;;;25.67;22.50;;;17.70;99.90;;;;;;5011371;28;20034;-59
2021/07/09 06:42:32;;;;;;;26.13;21.95;;;17.60;99.90;;;;;;5013001;28;20030;-57
2021/07/09 06:44:58;;;;;;;24.95;21.42;;;17.60;99.90;;;;;;5011847;28;20117;-55
2021/07/09 06:47:23;;;;;;;24.05;21.48;;;17.60;99.90;;;;;;5012887;28;20038;-59
2021/07/09 06:49:49;;;;;;;23.17;20.85;;;17.60;99.90;;;;;;5013114;28;20048;-56
2021/07/09 06:52:14;;;;;;;28.98;20.27;;;17.70;99.90;;;;;;5012976;28;20116;-57
2021/07/09 06:54:40;;;;;;;24.92;22.30;;;17.70;99.90;;;;;;5013036;28;20038;-57
2021/07/09 06:57:05;;;;;;;25.52;22.60;;;17.50;99.90;;;;;;5012592;28;20053;-56
2021/07/09 06:59:31;;;;;;;25.30;22.48;;;17.50;99.90;;;;;;5012186;28;20033;-59
2021/07/09 07:01:57;;;;;;;23.30;20.70;;;17.40;99.90;;;;;;5012628;28;20120;-57
2021/07/09 07:04:23;;;;;;;26.20;21.85;;;17.40;99.90;;;;;;5012532;28;20034;-59
2021/07/09 07:06:49;;;;;;;23.55;20.67;;;17.50;99.90;;;;;;5011522;28;20053;-57
2021/07/09 07:09:15;;;;;;;22.25;20.02;;;17.60;99.90;;;;;;4988946;28;20448;-60
2021/07/09 07:11:41;;;;;;;24.75;21.10;;;17.50;99.90;;;;;;4992767;28;20566;-60
2021/07/09 07:14:06;;;;;;;23.55;20.85;;;17.50;99.90;;;;;;5012293;28;20057;-60
2021/07/09 07:16:32;;;;;;;23.70;21.15;;;17.50;99.90;;;;;;5012319;28;20026;-57
2021/07/09 07:18:57;;;;;;;25.85;21.17;;;17.60;99.90;;;;;;5012262;28;20436;-59
2021/07/09 07:21:23;;;;;;;22.45;20.20;;;17.50;99.90;;;;;;5012961;28;20511;-58
2021/07/09 07:23:49;;;;;;;21.98;19.70;;;17.50;99.90;;;;;;5013038;28;20397;-62
2021/07/09 07:26:15;;;;;;;25.00;20.95;;;17.50;99.90;;;;;;5012247;28;20038;-58
2021/07/09 07:28:41;;;;;;;24.23;21.73;;;17.50;99.90;;;;;;5010934;28;20034;-58
2021/07/09 07:31:09;;;;;;;21.52;19.23;;;17.50;99.90;;;;;;5011330;28;20049;-64
2021/07/09 07:33:35;;;;;;;21.17;19.02;;;17.60;99.90;;;;;;5012308;28;20036;-65
2021/07/09 07:36:01;;;;;;;25.38;19.50;;;17.60;99.90;;;;;;5012019;28;20033;-64
2021/07/09 07:38:26;;;;;;;19.15;17.25;;;17.60;99.90;;;;;;5012044;28;20568;-63
2021/07/09 07:40:52;;;;;;;17.73;15.82;;;17.70;99.90;;;;;;5011013;28;20049;-63
2021/07/09 07:43:17;;;;;;;16.20;14.57;;;17.80;99.90;;;;;;5009551;28;20041;-61
2021/07/09 07:45:43;;;;;;;16.25;14.43;;;17.80;99.90;;;;;;5011765;28;20041;-62
2021/07/09 07:48:09;;;;;;;16.60;14.63;;;17.90;99.90;;;;;;5010194;28;20539;-62
2021/07/09 07:50:34;;;;;;;16.52;14.52;;;17.90;99.90;;;;;;5010622;28;20077;-62
2021/07/09 07:53:00;;;;;;;16.52;12.98;;;17.90;99.90;;;;;;5012552;28;20045;-58
2021/07/09 07:55:25;;;;;;;17.48;13.45;;;18.00;99.60;;;;;;5012071;28;20060;-61
2021/07/09 07:57:51;;;;;;;17.10;13.68;;;17.90;99.90;;;;;;5012192;28;20026;-60
2021/07/09 08:00:17;;;;;;;16.98;14.43;;;18.10;99.90;;;;;;5011563;28;20041;-60
2021/07/09 08:02:42;;;;;;;17.05;15.27;;;18.00;99.50;;;;;;4986304;28;20545;-59
2021/07/09 08:05:10;;;;;;;16.65;14.82;;;18.10;99.90;;;;;;5011403;28;20088;-60
2021/07/09 08:07:36;;;;;;;15.00;13.43;;;18.00;99.70;;;;;;5011434;28;20030;-62
2021/07/09 08:10:02;;;;;;;17.25;13.80;;;17.90;99.70;;;;;;5010359;28;20021;-57
2021/07/09 08:12:28;;;;;;;15.20;13.65;;;18.00;99.50;;;;;;5012389;28;20415;-59
2021/07/09 08:14:53;;;;;;;14.90;13.32;;;18.00;99.20;;;;;;5012817;28;20034;-59
2021/07/09 08:17:19;;;;;;;15.98;14.10;;;18.00;99.50;;;;;;5014656;28;20120;-57
2021/07/09 08:19:45;;;;;;;15.55;13.82;;;17.80;99.80;;;;;;5015555;28;20450;-58
2021/07/09 08:22:10;;;;;;;14.00;12.57;;;17.70;99.90;;;;;;5015013;28;20029;-58
2021/07/09 08:24:36;;;;;;;13.65;12.20;;;17.90;99.70;;;;;;5015028;28;20065;-58
2021/07/09 08:27:01;;;;;;;14.52;12.98;;;17.90;99.80;;;;;;5014811;28;20044;-58
2021/07/09 08:29:27;;;;;;;14.88;13.40;;;17.80;99.80;;;;;;5015433;28;20029;-58
2021/07/09 08:31:57;;;;;;;15.98;14.35;;;17.80;99.60;;;;;;5015235;28;20072;-59
2021/07/09 08:34:23;;;;;;;15.57;14.02;;;17.80;99.70;;;;;;5015450;28;20038;-58
2021/07/09 08:36:48;;;;;;;16.83;15.20;;;17.80;99.60;;;;;;5014787;28;20105;-64
2021/07/09 08:39:18;;;;;;;16.30;14.75;;;17.70;99.90;;;;;;5015211;28;20117;-65
2021/07/09 08:41:46;;;;;;;16.92;15.20;;;17.80;99.90;;;;;;5014946;28;20061;-65
2021/07/09 08:44:14;;;;;;;16.48;14.88;;;17.90;99.90;;;;;;4994182;28;20513;-65
2021/07/09 08:46:40;;;;;;;16.45;14.82;;;17.90;99.90;;;;;;5012003;28;20078;-64
2021/07/09 08:49:14;;;;;;;16.10;14.45;;;18.00;99.90;;;;;;5013603;28;20032;-64
2021/07/09 08:51:40;;;;;;;16.17;14.68;;;17.90;99.90;;;;;;5012047;28;20022;-64
2021/07/09 08:54:16;;;;;;;15.50;14.00;;;17.90;99.90;;;;;;5014553;28;20121;-63
2021/07/09 08:56:43;;;;;;;17.10;15.40;;;17.80;99.90;;;;;;5012000;28;20021;-65
2021/07/09 08:59:09;;;;;;;16.70;15.10;;;17.80;99.90;;;;;;5014423;28;20049;-63
2021/07/09 09:01:58;;;;;;;19.90;15.00;;;17.80;99.90;;;;;;5014125;28;20096;-66
2021/07/09 09:04:28;;;;;;;15.30;13.88;;;17.90;99.90;;;;;;4993804;28;20030;-66
2021/07/09 09:06:57;;;;;;;15.95;14.25;;;17.80;99.90;;;;;;4993240;28;20613;-64
2021/07/09 09:09:23;;;;;;;16.13;14.63;;;17.80;99.90;;;;;;4995545;28;20397;-62
2021/07/09 09:12:02;;;;;;;18.27;15.10;;;17.90;99.90;;;;;;4995047;28;20034;-64
2021/07/09 09:14:28;;;;;;;15.50;13.90;;;17.80;99.90;;;;;;4995500;28;20035;-62
2021/07/09 09:16:54;;;;;;;16.35;14.63;;;17.90;99.90;;;;;;4995169;28;20138;-62
2021/07/09 09:19:21;;;;;;;15.30;12.85;;;17.80;99.90;;;;;;5004981;28;20071;-62
2021/07/09 09:22:07;;;;;;;15.82;12.32;;;17.70;99.90;;;;;;5013640;28;20046;-60
2021/07/09 09:24:32;;;;;;;14.27;12.40;;;17.70;99.90;;;;;;5013585;28;20030;-59
2021/07/09 09:26:58;;;;;;;14.82;12.52;;;17.60;99.90;;;;;;5012978;28;20045;-60
2021/07/09 09:29:26;;;;;;;14.05;11.63;;;17.60;99.90;;;;;;5013013;28;20065;-59
2021/07/09 09:31:57;;;;;;;13.70;12.15;;;17.70;99.90;;;;;;5013581;28;20026;-61
2021/07/09 09:34:40;;;;;;;14.13;12.13;;;17.70;99.90;;;;;;5013310;28;20073;-63
2021/07/09 09:37:06;;;;;;;15.43;11.98;;;17.60;99.90;;;;;;4988865;28;20165;-63
2021/07/09 09:39:32;;;;;;;14.07;12.68;;;17.60;99.90;;;;;;5011951;28;20544;-62
2021/07/09 09:42:18;;;;;;;13.70;12.35;;;17.60;99.90;;;;;;5013353;28;20025;-63
2021/07/09 09:45:05;;;;;;;13.13;11.27;;;17.70;99.90;;;;;;5012118;28;20050;-63
2021/07/09 09:47:35;;;;;;;17.08;9.98;;;17.60;99.90;;;;;;5008610;28;20118;-63
2021/07/09 09:50:04;;;;;;;9.68;8.65;;;17.60;99.30;;;;;;5010969;28;20025;-62
2021/07/09 09:52:34;;;;;;;8.73;7.82;;;17.60;99.60;;;;;;5011032;28;20034;-64
2021/07/09 09:55:02;;;;;;;10.77;8.35;;;17.60;98.90;;;;;;5011462;28;20026;-65
2021/07/09 09:57:28;;;;;;;12.23;7.65;;;17.50;99.40;;;;;;5009427;28;20136;-65
2021/07/09 09:59:54;;;;;;;11.60;7.18;;;17.40;98.90;;;;;;5012007;28;20092;-66
2021/07/09 10:02:23;;;;;;;7.68;6.97;;;17.30;99.30;;;;;;5011561;28;20040;-65
2021/07/09 10:04:49;;;;;;;8.90;6.72;;;17.20;99.40;;;;;;5010948;28;20041;-67
2021/07/09 10:07:15;;;;;;;10.50;7.15;;;17.10;99.50;;;;;;5011135;28;20052;-66
2021/07/09 10:09:41;;;;;;;9.35;8.00;;;17.00;99.90;;;;;;5011671;28;20037;-67
2021/07/09 10:12:14;;;;;;;7.90;6.72;;;16.90;99.90;;;;;;5011742;28;20045;-66
2021/07/09 10:14:44;;;;;;;9.13;7.07;;;16.90;99.60;;;;;;5009385;28;20528;-66
2021/07/09 10:17:10;;;;;;;9.98;6.43;;;16.80;99.90;;;;;;5011754;28;20367;-67
2021/07/09 10:19:43;;;;;;;8.15;7.28;;;16.70;99.60;;;;;;5012045;28;20040;-66
2021/07/09 10:22:12;;;;;;;8.97;6.90;;;16.60;99.90;;;;;;5012678;28;20057;-66
2021/07/09 10:24:45;;;;;;;8.23;7.25;;;16.70;99.70;;;;;;5012900;28;20101;-65
2021/07/09 10:27:12;;;;;;;7.80;6.97;;;16.60;99.80;;;;;;5012456;28;20042;-65
2021/07/09 10:29:43;;;;;;;8.73;7.82;;;16.60;99.90;;;;;;5012859;28;20030;-65
2021/07/09 10:32:09;;;;;;;11.25;8.45;;;16.60;99.90;;;;;;5012565;28;20018;-65
2021/07/09 10:34:48;;;;;;;9.07;8.05;;;16.50;99.90;;;;;;5011149;28;20045;-66
2021/07/09 10:37:22;;;;;;;9.68;8.00;;;16.60;99.90;;;;;;5010413;28;20037;-65
2021/07/09 10:39:50;;;;;;;8.93;8.07;;;16.50;99.90;;;;;;5012231;28;20057;-66
2021/07/09 10:42:30;;;;;;;11.30;7.75;;;16.50;99.90;;;;;;5011224;28;20033;-67
2021/07/09 10:45:24;;;;;;;8.77;7.35;;;16.50;99.90;;;;;;5012986;28;20037;-66
2021/07/09 10:48:04;;;;;;;8.93;7.95;;;16.60;99.90;;;;;;5012112;28;20037;-66
2021/07/09 10:50:53;;;;;;;11.80;7.45;;;16.50;99.90;;;;;;5012089;28;20026;-67
2021/07/09 10:53:25;;;;;;;10.52;7.35;;;16.40;99.90;;;;;;5006281;28;20049;-65
2021/07/09 10:56:12;;;;;;;9.35;7.68;;;16.40;99.90;;;;;;5007480;28;20041;-64
2021/07/09 10:58:44;;;;;;;8.05;6.55;;;16.30;99.90;;;;;;5010713;28;20444;-66
2021/07/09 11:01:22;;;;;;;7.07;5.57;;;16.20;99.90;;;;;;5011882;28;20424;-65
2021/07/09 11:03:49;;;;;;;9.50;6.10;;;16.20;99.90;;;;;;5012248;28;20046;-67
2021/07/09 11:06:36;;;;;;;6.35;5.75;;;16.20;99.90;;;;;;5011402;28;20065;-66
2021/07/09 11:09:13;;;;;;;6.63;5.60;;;16.20;99.90;;;;;;5012465;28;20133;-66
2021/07/09 11:11:47;;;;;;;6.18;5.45;;;16.20;99.90;;;;;;5011798;28;20054;-65
2021/07/09 11:14:33;;;;;;;7.90;5.28;;;16.10;99.90;;;;;;5010999;28;20125;-65
2021/07/09 11:17:16;;;;;;;6.22;5.18;;;16.10;99.90;;;;;;5010284;28;20042;-65
2021/07/09 11:19:42;;;;;;;8.98;5.50;;;16.10;99.90;;;;;;5012061;28;20038;-65
2021/07/09 11:22:09;;;;;;;6.70;5.80;;;16.00;99.90;;;;;;5011758;28;20092;-66
2021/07/09 11:24:51;;;;;;;6.13;5.53;;;16.00;99.90;;;;;;5008509;28;20085;-65
2021/07/09 11:27:17;;;;;;;6.47;5.07;;;16.00;99.90;;;;;;5010804;28;20030;-66
2021/07/09 11:29:45;;;;;;;5.72;5.20;;;15.80;99.90;;;;;;5007971;28;20085;-66
2021/07/09 11:32:19;;;;;;;5.40;4.68;;;15.70;99.90;;;;;;5010178;28;20398;-66
2021/07/09 11:34:45;;;;;;;;;;;15.60;99.90;;;;;;5012291;28;20132;-66
2021/07/09 11:37:16;;;;;;;5.70;5.13;;;15.60;99.90;;;;;;5011258;28;19941;-66
2021/07/09 11:39:50;;;;;;;6.78;5.50;;;15.60;99.90;;;;;;5011226;28;20080;-66
2021/07/09 11:42:18;;;;;;;5.97;5.43;;;15.50;99.90;;;;;;5010493;28;20501;-66
2021/07/09 11:44:50;;;;;;;6.65;5.38;;;15.60;99.90;;;;;;5015044;28;20493;-65
2021/07/09 11:47:17;;;;;;;7.15;5.78;;;15.50;99.90;;;;;;5010889;28;20116;-66
2021/07/09 11:50:13;;;;;;;6.30;5.70;;;15.50;99.90;;;;;;5011313;28;20038;-65
2021/07/09 11:52:41;;;;;;;7.20;6.10;;;15.60;99.90;;;;;;5014614;28;20038;-65
2021/07/09 11:55:08;;;;;;;7.80;6.53;;;15.70;99.90;;;;;;5014453;28;20030;-64
2021/07/09 11:57:40;;;;;;;8.50;6.28;;;15.80;99.90;;;;;;5013816;28;20477;-66
2021/07/09 12:00:10;;;;;;;7.43;5.85;;;15.70;99.90;;;;;;5008280;28;20069;-66
2021/07/09 12:02:36;;;;;;;7.95;6.70;;;15.90;99.90;;;;;;5015626;28;20041;-65
2021/07/09 12:05:12;;;;;;;7.45;5.78;;;16.00;99.90;;;;;;5015007;28;20381;-66
2021/07/09 12:07:49;;;;;;;7.03;6.28;;;15.90;99.90;;;;;;5013303;28;20038;-66
2021/07/09 12:10:20;;;;;;;8.38;6.22;;;16.00;99.90;;;;;;5014984;28;20591;-66
2021/07/09 12:13:00;;;;;;;8.70;6.10;;;16.00;99.90;;;;;;5014039;28;20088;-66
2021/07/09 12:15:28;;;;;;;8.43;6.07;;;15.90;99.90;;;;;;5014909;28;20041;-66
2021/07/09 12:17:58;;;;;;;7.55;6.65;;;16.00;99.90;;;;;;5014986;28;20116;-66
2021/07/09 12:20:25;;;;;;;7.10;6.32;;;16.00;99.90;;;;;;5015066;28;20073;-66
2021/07/09 12:23:05;;;;;;;8.13;6.82;;;16.00;99.90;;;;;;5015495;28;20044;-64
2021/07/09 12:25:33;;;;;;;6.80;6.07;;;16.00;99.90;;;;;;5015139;28;20033;-64
2021/07/09 12:28:20;;;;;;;7.93;6.22;;;16.10;99.90;;;;;;5014578;28;20038;-65
2021/07/09 12:30:48;;;;;;;7.07;6.20;;;16.00;99.90;;;;;;5011368;28;20045;-63
2021/07/09 12:33:16;;;;;;;6.70;6.10;;;16.10;99.90;;;;;;5014883;28;20061;-63
2021/07/09 12:35:42;;;;;;;7.45;6.75;;;16.10;99.90;;;;;;5015217;28;20036;-63